Summerfield, Kansas
Current Conditions -  °F | °C
As of 10:35 AM on Wednesday 26 Nov 2014 (Local Time) from KMYZ Reporting Station
Overcast Overcast  
Wind Chill: 23°   Ceiling: 2100
Heat Index: 36°   Visibility: 10mi
Dew Point: 28°   Wind: 29mph
Humidity: 75%   Direction: 330°NNW
Pressure: 30.08"   Gusts: 36mph
Location:  40°N, 96.35°W
Report Text: KMYZ 261635Z AUTO 33025G31KT 10SM OVC021 02/M02 A3008 RMK AO2
Loading
Personal Weather Stations






























Interactive Weather Map New forecast layout! Learn more

10-Day Weather Forecast

Advertisements
Track Severe Weather on mobile